createdAt,value
2022-11-18T16:00:25.631Z,1.54
2022-11-18T16:02:59.645Z,1.46
2022-11-18T16:05:33.082Z,1.47
2022-11-18T16:08:06.532Z,1.48
2022-11-18T16:10:57.287Z,1.45
2022-11-18T16:13:31.380Z,1.44
2022-11-18T16:16:05.324Z,1.45
2022-11-18T16:18:40.802Z,1.43
2022-11-18T16:21:14.981Z,1.38
2022-11-18T16:23:49.092Z,1.30
2022-11-18T16:26:22.250Z,1.29
2022-11-18T16:28:56.362Z,1.28
2022-11-18T16:31:41.992Z,1.28
2022-11-18T16:34:17.185Z,1.25
2022-11-18T16:36:52.450Z,1.18
2022-11-18T16:39:27.841Z,1.12
2022-11-18T16:42:08.330Z,1.09
2022-11-18T16:44:42.583Z,1.04
2022-11-18T16:47:16.170Z,1.00
2022-11-18T16:49:49.870Z,0.95
2022-11-18T16:52:24.846Z,0.94
2022-11-18T16:54:58.433Z,0.95
2022-11-18T16:57:32.648Z,0.94
2022-11-18T17:00:08.315Z,0.95
2022-11-18T17:02:42.515Z,0.97
2022-11-18T17:05:16.440Z,0.96
2022-11-18T17:07:50.351Z,0.96
2022-11-18T17:10:24.977Z,0.95
2022-11-18T17:12:58.582Z,0.97
2022-11-18T17:15:33.257Z,0.96
2022-11-18T17:18:25.299Z,0.95
2022-11-18T17:20:58.797Z,0.95
2022-11-18T17:23:33.115Z,0.96
2022-11-18T17:26:08.627Z,0.97
2022-11-18T17:28:43.896Z,0.98
2022-11-18T17:31:19.482Z,0.99
2022-11-18T17:33:56.491Z,1.01
2022-11-18T17:36:31.245Z,1.02
2022-11-18T17:39:04.879Z,1.01
2022-11-18T17:41:56.490Z,1.00
2022-11-18T17:44:30.965Z,0.95
2022-11-18T17:47:05.438Z,0.91
2022-11-18T17:49:39.359Z,0.90
2022-11-18T17:52:13.479Z,0.89
2022-11-18T17:54:46.696Z,0.87
2022-11-18T17:57:20.494Z,0.85
2022-11-18T17:59:54.178Z,0.83
2022-11-18T18:02:28.657Z,0.79
2022-11-18T18:05:02.789Z,0.78
2022-11-18T18:07:36.914Z,0.81
2022-11-18T18:10:12.864Z,0.82
2022-11-18T18:13:13.712Z,0.79
2022-11-18T18:16:00.252Z,0.80
2022-11-18T18:18:34.647Z,0.80
2022-11-18T18:21:12.865Z,0.80
2022-11-18T18:23:47.434Z,0.82
2022-11-18T18:26:26.599Z,0.81
2022-11-18T18:29:05.659Z,0.79
2022-11-18T18:31:40.247Z,0.79
2022-11-18T18:34:13.875Z,0.84
2022-11-18T18:36:48.137Z,0.90
2022-11-18T18:39:22.571Z,0.92
2022-11-18T18:41:56.422Z,0.95
2022-11-18T18:44:51.091Z,0.97
2022-11-18T18:47:25.933Z,0.97
2022-11-18T18:49:59.495Z,0.97
2022-11-18T18:52:34.594Z,0.99
2022-11-18T18:55:09.978Z,1.00
2022-11-18T18:57:44.691Z,1.00
2022-11-18T19:00:21.272Z,0.99
2022-11-18T19:02:55.968Z,0.95
2022-11-18T19:06:00.805Z,0.91
2022-11-18T19:08:28.132Z,0.90
2022-11-18T19:11:07.222Z,0.93
2022-11-18T19:13:39.605Z,0.93
2022-11-18T19:16:14.057Z,0.94
2022-11-18T19:18:50.826Z,0.95
2022-11-18T19:21:25.818Z,0.96
2022-11-18T19:24:00.772Z,0.96
2022-11-18T19:26:36.044Z,0.99
2022-11-18T19:29:10.646Z,1.02
2022-11-18T19:31:44.983Z,1.04
2022-11-18T19:34:20.549Z,1.03
2022-11-18T19:36:54.727Z,0.99
2022-11-18T19:39:28.620Z,0.97
2022-11-18T19:42:02.919Z,0.95
2022-11-18T19:44:36.577Z,0.93
2022-11-18T19:47:10.523Z,0.92
2022-11-18T19:49:44.516Z,0.93
2022-11-18T19:52:19.389Z,0.91
2022-11-18T19:54:52.743Z,0.90
2022-11-18T19:57:26.948Z,0.87
2022-11-18T20:00:01.189Z,0.81
2022-11-18T20:02:35.909Z,0.78
2022-11-18T20:05:32.422Z,0.80
2022-11-18T20:08:08.586Z,0.81
2022-11-18T20:10:42.985Z,0.79
2022-11-18T20:13:18.496Z,0.77
2022-11-18T20:15:53.425Z,0.74
2022-11-18T20:18:27.869Z,0.73
2022-11-18T20:21:07.576Z,0.75
2022-11-18T20:23:41.985Z,0.74
2022-11-18T20:26:17.632Z,0.71
2022-11-18T20:28:57.224Z,0.68
2022-11-18T20:31:34.697Z,0.64
2022-11-18T20:34:09.319Z,0.62
2022-11-18T20:36:46.009Z,0.62
2022-11-18T20:39:21.353Z,0.63
2022-11-18T20:42:13.437Z,0.66
2022-11-18T20:44:48.665Z,0.70
2022-11-18T20:47:21.387Z,0.73
2022-11-18T20:49:57.863Z,0.77
2022-11-18T20:52:32.199Z,0.80
2022-11-18T20:55:06.904Z,0.81
2022-11-18T20:57:40.619Z,0.82
2022-11-18T21:00:16.554Z,0.82
2022-11-18T21:02:50.255Z,0.82
2022-11-18T21:05:24.281Z,0.83
2022-11-18T21:07:58.025Z,0.79
2022-11-18T21:10:32.281Z,0.74
2022-11-18T21:13:24.795Z,0.74
2022-11-18T21:15:59.323Z,0.75
2022-11-18T21:18:33.871Z,0.75
2022-11-18T21:21:25.857Z,0.75
2022-11-18T21:24:01.141Z,0.74
2022-11-18T21:26:36.634Z,0.70
2022-11-18T21:29:11.935Z,0.67
2022-11-18T21:31:46.178Z,0.67
2022-11-18T21:34:20.351Z,0.62
2022-11-18T21:36:55.417Z,0.61
2022-11-18T21:39:30.063Z,0.60
2022-11-18T21:42:04.090Z,0.59
2022-11-18T21:44:37.948Z,0.59
2022-11-18T21:47:12.152Z,0.60
2022-11-18T21:49:45.698Z,0.57
2022-11-18T21:52:19.419Z,0.55
2022-11-18T21:54:52.837Z,0.52
2022-11-18T21:57:26.316Z,0.51
2022-11-18T21:59:59.736Z,0.48
2022-11-18T22:02:33.467Z,0.42
2022-11-18T22:05:08.644Z,0.36
2022-11-18T22:07:42.153Z,0.35
2022-11-18T22:10:17.148Z,0.35
2022-11-18T22:12:51.888Z,0.34
2022-11-18T22:15:25.491Z,0.33
2022-11-18T22:17:58.637Z,0.29
2022-11-18T22:20:32.413Z,0.28
2022-11-18T22:23:06.379Z,0.26
2022-11-18T22:25:40.345Z,0.24
2022-11-18T22:28:13.823Z,0.27
2022-11-18T22:30:48.257Z,0.32
2022-11-18T22:33:21.709Z,0.39
2022-11-18T22:35:55.059Z,0.44
2022-11-18T22:38:28.937Z,0.45
2022-11-18T22:41:07.009Z,0.47
2022-11-18T22:43:40.781Z,0.48
2022-11-18T22:46:15.463Z,0.48
2022-11-18T22:48:49.055Z,0.47
2022-11-18T22:51:22.515Z,0.46
2022-11-18T22:54:15.936Z,0.39
2022-11-18T22:56:49.956Z,0.35
2022-11-18T22:59:23.513Z,0.33
2022-11-18T23:01:57.069Z,0.32
2022-11-18T23:04:30.642Z,0.31
2022-11-18T23:07:04.425Z,0.32
2022-11-18T23:09:37.956Z,0.36
2022-11-18T23:12:29.076Z,0.39
2022-11-18T23:15:02.957Z,0.42
2022-11-18T23:17:36.408Z,0.45
2022-11-18T23:20:12.449Z,0.47
2022-11-18T23:22:46.198Z,0.51
2022-11-18T23:25:20.080Z,0.54
2022-11-18T23:27:54.467Z,0.55
2022-11-18T23:30:28.379Z,0.57
2022-11-18T23:33:01.943Z,0.54
2022-11-18T23:35:35.747Z,0.51
2022-11-18T23:38:09.160Z,0.52
2022-11-18T23:40:42.442Z,0.52
2022-11-18T23:43:15.860Z,0.51
2022-11-18T23:45:49.489Z,0.51
2022-11-18T23:48:23.777Z,0.53
2022-11-18T23:51:01.893Z,0.55
2022-11-18T23:53:37.013Z,0.56
2022-11-18T23:56:12.978Z,0.55
2022-11-18T23:58:48.223Z,0.54
